sensor_id;sensor_type;location;lat;lon;timestamp;P1;durP1;ratioP1;P2;durP2;ratioP2
20880;SDS011;10600;53.096;8.802;2024-03-02T00:00:40;31.40;;;18.45;;
20880;SDS011;10600;53.096;8.802;2024-03-02T00:01:40;31.80;;;18.83;;
20880;SDS011;10600;53.096;8.802;2024-03-02T00:02:44;29.65;;;18.42;;
20880;SDS011;10600;53.096;8.802;2024-03-02T00:03:45;29.42;;;18.48;;
20880;SDS011;10600;53.096;8.802;2024-03-02T00:04:46;33.60;;;18.95;;
20880;SDS011;10600;53.096;8.802;2024-03-02T00:05:50;29.63;;;17.65;;
20880;SDS011;10600;53.096;8.802;2024-03-02T00:06:54;32.05;;;18.33;;
20880;SDS011;10600;53.096;8.802;2024-03-02T00:07:56;30.42;;;18.48;;
20880;SDS011;10600;53.096;8.802;2024-03-02T00:08:58;32.72;;;19.00;;
20880;SDS011;10600;53.096;8.802;2024-03-02T00:09:59;32.45;;;18.13;;
20880;SDS011;10600;53.096;8.802;2024-03-02T00:11:00;33.90;;;19.17;;
20880;SDS011;10600;53.096;8.802;2024-03-02T00:12:02;32.80;;;18.42;;
20880;SDS011;10600;53.096;8.802;2024-03-02T00:13:03;35.47;;;19.48;;
20880;SDS011;10600;53.096;8.802;2024-03-02T00:14:04;30.98;;;18.30;;
20880;SDS011;10600;53.096;8.802;2024-03-02T00:15:25;28.63;;;18.42;;
20880;SDS011;10600;53.096;8.802;2024-03-02T00:16:30;30.35;;;19.13;;
20880;SDS011;10600;53.096;8.802;2024-03-02T00:17:34;31.95;;;19.20;;
20880;SDS011;10600;53.096;8.802;2024-03-02T00:18:35;31.02;;;18.23;;
20880;SDS011;10600;53.096;8.802;2024-03-02T00:19:38;31.30;;;18.98;;
20880;SDS011;10600;53.096;8.802;2024-03-02T00:20:40;30.20;;;18.75;;
20880;SDS011;10600;53.096;8.802;2024-03-02T00:21:44;33.63;;;18.80;;
20880;SDS011;10600;53.096;8.802;2024-03-02T00:22:45;33.10;;;19.70;;
20880;SDS011;10600;53.096;8.802;2024-03-02T00:23:46;29.38;;;18.83;;
20880;SDS011;10600;53.096;8.802;2024-03-02T00:24:49;32.70;;;18.77;;
20880;SDS011;10600;53.096;8.802;2024-03-02T00:25:52;29.65;;;19.02;;
20880;SDS011;10600;53.096;8.802;2024-03-02T00:26:56;32.67;;;19.27;;
20880;SDS011;10600;53.096;8.802;2024-03-02T00:27:57;33.80;;;19.25;;
20880;SDS011;10600;53.096;8.802;2024-03-02T00:28:58;34.05;;;19.45;;
20880;SDS011;10600;53.096;8.802;2024-03-02T00:30:05;32.65;;;18.88;;
20880;SDS011;10600;53.096;8.802;2024-03-02T00:31:27;29.38;;;18.13;;
20880;SDS011;10600;53.096;8.802;2024-03-02T00:32:28;31.90;;;18.58;;
20880;SDS011;10600;53.096;8.802;2024-03-02T00:33:36;32.83;;;18.58;;
20880;SDS011;10600;53.096;8.802;2024-03-02T00:34:39;35.60;;;19.85;;
20880;SDS011;10600;53.096;8.802;2024-03-02T00:35:40;28.55;;;18.23;;
20880;SDS011;10600;53.096;8.802;2024-03-02T00:36:44;29.85;;;17.83;;
20880;SDS011;10600;53.096;8.802;2024-03-02T00:37:45;31.52;;;18.40;;
20880;SDS011;10600;53.096;8.802;2024-03-02T00:38:47;30.90;;;17.95;;
20880;SDS011;10600;53.096;8.802;2024-03-02T00:39:49;28.92;;;18.35;;
20880;SDS011;10600;53.096;8.802;2024-03-02T00:40:49;28.42;;;18.35;;
20880;SDS011;10600;53.096;8.802;2024-03-02T00:41:50;28.30;;;18.55;;
20880;SDS011;10600;53.096;8.802;2024-03-02T00:42:50;29.98;;;17.80;;
20880;SDS011;10600;53.096;8.802;2024-03-02T00:44:58;27.10;;;17.63;;
20880;SDS011;10600;53.096;8.802;2024-03-02T00:45:59;28.10;;;17.08;;
20880;SDS011;10600;53.096;8.802;2024-03-02T00:47:00;32.38;;;18.55;;
20880;SDS011;10600;53.096;8.802;2024-03-02T00:48:00;32.65;;;19.02;;
20880;SDS011;10600;53.096;8.802;2024-03-02T00:49:02;27.60;;;17.17;;
20880;SDS011;10600;53.096;8.802;2024-03-02T00:50:03;26.25;;;17.73;;
20880;SDS011;10600;53.096;8.802;2024-03-02T00:51:06;28.65;;;17.75;;
20880;SDS011;10600;53.096;8.802;2024-03-02T00:52:08;28.95;;;17.65;;
20880;SDS011;10600;53.096;8.802;2024-03-02T00:53:11;28.67;;;18.33;;
20880;SDS011;10600;53.096;8.802;2024-03-02T00:54:13;30.98;;;18.02;;
20880;SDS011;10600;53.096;8.802;2024-03-02T00:55:14;30.88;;;17.98;;
20880;SDS011;10600;53.096;8.802;2024-03-02T00:56:15;29.85;;;18.45;;
20880;SDS011;10600;53.096;8.802;2024-03-02T00:57:16;28.20;;;17.25;;
20880;SDS011;10600;53.096;8.802;2024-03-02T00:58:16;31.33;;;19.02;;
20880;SDS011;10600;53.096;8.802;2024-03-02T00:59:17;32.83;;;17.60;;
20880;SDS011;10600;53.096;8.802;2024-03-02T01:00:18;30.27;;;18.80;;
20880;SDS011;10600;53.096;8.802;2024-03-02T01:01:18;28.23;;;17.65;;
20880;SDS011;10600;53.096;8.802;2024-03-02T01:02:22;28.95;;;16.70;;
20880;SDS011;10600;53.096;8.802;2024-03-02T01:03:23;26.80;;;17.48;;
20880;SDS011;10600;53.096;8.802;2024-03-02T01:04:24;27.92;;;17.23;;
20880;SDS011;10600;53.096;8.802;2024-03-02T01:05:24;31.45;;;18.17;;
20880;SDS011;10600;53.096;8.802;2024-03-02T01:06:25;27.75;;;16.88;;
20880;SDS011;10600;53.096;8.802;2024-03-02T01:07:25;28.05;;;17.55;;
20880;SDS011;10600;53.096;8.802;2024-03-02T01:08:26;33.60;;;18.17;;
20880;SDS011;10600;53.096;8.802;2024-03-02T01:09:27;27.92;;;16.83;;
20880;SDS011;10600;53.096;8.802;2024-03-02T01:10:27;26.15;;;16.08;;
20880;SDS011;10600;53.096;8.802;2024-03-02T01:11:28;28.05;;;17.38;;
20880;SDS011;10600;53.096;8.802;2024-03-02T01:12:30;27.20;;;16.67;;
20880;SDS011;10600;53.096;8.802;2024-03-02T01:13:30;26.08;;;16.20;;
20880;SDS011;10600;53.096;8.802;2024-03-02T01:14:31;27.65;;;17.60;;
20880;SDS011;10600;53.096;8.802;2024-03-02T01:15:31;29.95;;;17.67;;
20880;SDS011;10600;53.096;8.802;2024-03-02T01:16:33;28.35;;;17.10;;
20880;SDS011;10600;53.096;8.802;2024-03-02T01:17:34;26.73;;;16.52;;
20880;SDS011;10600;53.096;8.802;2024-03-02T01:18:34;29.55;;;16.80;;
20880;SDS011;10600;53.096;8.802;2024-03-02T01:19:35;29.52;;;18.15;;
20880;SDS011;10600;53.096;8.802;2024-03-02T01:20:35;28.27;;;17.20;;
20880;SDS011;10600;53.096;8.802;2024-03-02T01:21:36;32.55;;;18.70;;
20880;SDS011;10600;53.096;8.802;2024-03-02T01:22:36;31.92;;;18.00;;
20880;SDS011;10600;53.096;8.802;2024-03-02T01:23:37;30.75;;;18.40;;
20880;SDS011;10600;53.096;8.802;2024-03-02T01:24:38;29.50;;;17.85;;
20880;SDS011;10600;53.096;8.802;2024-03-02T01:25:38;26.70;;;16.48;;
20880;SDS011;10600;53.096;8.802;2024-03-02T01:26:39;30.60;;;18.20;;
20880;SDS011;10600;53.096;8.802;2024-03-02T01:27:39;28.58;;;16.67;;
20880;SDS011;10600;53.096;8.802;2024-03-02T01:28:40;31.23;;;17.70;;
20880;SDS011;10600;53.096;8.802;2024-03-02T01:29:40;26.05;;;16.35;;
20880;SDS011;10600;53.096;8.802;2024-03-02T01:30:42;29.35;;;17.55;;
20880;SDS011;10600;53.096;8.802;2024-03-02T01:31:43;28.15;;;17.42;;
20880;SDS011;10600;53.096;8.802;2024-03-02T01:32:43;31.35;;;17.60;;
20880;SDS011;10600;53.096;8.802;2024-03-02T01:33:44;30.35;;;17.70;;
20880;SDS011;10600;53.096;8.802;2024-03-02T01:34:44;26.48;;;15.90;;
20880;SDS011;10600;53.096;8.802;2024-03-02T01:35:45;26.67;;;15.75;;
20880;SDS011;10600;53.096;8.802;2024-03-02T01:36:45;28.42;;;16.83;;
20880;SDS011;10600;53.096;8.802;2024-03-02T01:37:46;25.58;;;15.73;;
20880;SDS011;10600;53.096;8.802;2024-03-02T01:38:46;27.45;;;16.40;;
20880;SDS011;10600;53.096;8.802;2024-03-02T01:39:47;28.48;;;16.05;;
20880;SDS011;10600;53.096;8.802;2024-03-02T01:40:47;26.42;;;16.13;;
20880;SDS011;10600;53.096;8.802;2024-03-02T01:41:48;27.25;;;15.85;;
20880;SDS011;10600;53.096;8.802;2024-03-02T01:42:48;28.25;;;16.35;;
20880;SDS011;10600;53.096;8.802;2024-03-02T01:43:49;27.67;;;16.85;;
20880;SDS011;10600;53.096;8.802;2024-03-02T01:44:50;27.20;;;16.23;;
20880;SDS011;10600;53.096;8.802;2024-03-02T01:45:51;26.50;;;15.85;;
20880;SDS011;10600;53.096;8.802;2024-03-02T01:46:51;28.58;;;16.23;;
20880;SDS011;10600;53.096;8.802;2024-03-02T01:47:52;26.23;;;16.00;;
20880;SDS011;10600;53.096;8.802;2024-03-02T01:48:52;29.30;;;17.27;;
20880;SDS011;10600;53.096;8.802;2024-03-02T01:49:53;28.50;;;16.70;;
20880;SDS011;10600;53.096;8.802;2024-03-02T01:50:53;29.20;;;16.23;;
20880;SDS011;10600;53.096;8.802;2024-03-02T01:51:55;24.95;;;16.05;;
20880;SDS011;10600;53.096;8.802;2024-03-02T01:52:56;26.23;;;15.98;;
20880;SDS011;10600;53.096;8.802;2024-03-02T01:53:57;27.38;;;15.95;;
20880;SDS011;10600;53.096;8.802;2024-03-02T01:54:58;25.05;;;16.42;;
20880;SDS011;10600;53.096;8.802;2024-03-02T01:55:59;27.60;;;15.25;;
20880;SDS011;10600;53.096;8.802;2024-03-02T01:56:59;27.38;;;16.75;;
20880;SDS011;10600;53.096;8.802;2024-03-02T01:58:00;25.98;;;16.73;;
20880;SDS011;10600;53.096;8.802;2024-03-02T01:59:01;26.52;;;15.98;;
20880;SDS011;10600;53.096;8.802;2024-03-02T02:00:02;23.25;;;15.32;;
20880;SDS011;10600;53.096;8.802;2024-03-02T02:01:03;26.67;;;16.00;;
20880;SDS011;10600;53.096;8.802;2024-03-02T02:02:04;25.45;;;15.98;;
20880;SDS011;10600;53.096;8.802;2024-03-02T02:03:04;26.65;;;16.42;;
20880;SDS011;10600;53.096;8.802;2024-03-02T02:04:05;28.17;;;17.05;;
20880;SDS011;10600;53.096;8.802;2024-03-02T02:05:06;27.10;;;15.93;;
20880;SDS011;10600;53.096;8.802;2024-03-02T02:06:07;28.30;;;16.38;;
20880;SDS011;10600;53.096;8.802;2024-03-02T02:07:08;26.88;;;16.63;;
20880;SDS011;10600;53.096;8.802;2024-03-02T02:08:10;24.98;;;16.30;;
20880;SDS011;10600;53.096;8.802;2024-03-02T02:09:10;25.83;;;16.75;;
20880;SDS011;10600;53.096;8.802;2024-03-02T02:10:11;26.00;;;15.95;;
20880;SDS011;10600;53.096;8.802;2024-03-02T02:11:15;24.73;;;15.63;;
20880;SDS011;10600;53.096;8.802;2024-03-02T02:12:16;29.40;;;15.60;;
20880;SDS011;10600;53.096;8.802;2024-03-02T02:13:17;25.35;;;16.52;;
20880;SDS011;10600;53.096;8.802;2024-03-02T02:14:18;27.10;;;16.60;;
20880;SDS011;10600;53.096;8.802;2024-03-02T02:15:25;26.00;;;15.45;;
20880;SDS011;10600;53.096;8.802;2024-03-02T02:16:26;25.05;;;15.20;;
20880;SDS011;10600;53.096;8.802;2024-03-02T02:17:27;25.95;;;16.02;;
20880;SDS011;10600;53.096;8.802;2024-03-02T02:18:27;26.30;;;16.05;;
20880;SDS011;10600;53.096;8.802;2024-03-02T02:19:28;25.23;;;15.85;;
20880;SDS011;10600;53.096;8.802;2024-03-02T02:20:28;27.23;;;16.98;;
20880;SDS011;10600;53.096;8.802;2024-03-02T02:21:29;24.38;;;15.63;;
20880;SDS011;10600;53.096;8.802;2024-03-02T02:22:30;25.70;;;15.90;;
20880;SDS011;10600;53.096;8.802;2024-03-02T02:23:30;30.40;;;16.42;;
20880;SDS011;10600;53.096;8.802;2024-03-02T02:24:31;29.63;;;16.17;;
20880;SDS011;10600;53.096;8.802;2024-03-02T02:25:31;26.15;;;16.50;;
20880;SDS011;10600;53.096;8.802;2024-03-02T02:26:32;29.52;;;16.45;;
20880;SDS011;10600;53.096;8.802;2024-03-02T02:27:32;25.48;;;15.68;;
20880;SDS011;10600;53.096;8.802;2024-03-02T02:28:33;26.83;;;15.77;;
20880;SDS011;10600;53.096;8.802;2024-03-02T02:29:33;25.08;;;16.02;;
20880;SDS011;10600;53.096;8.802;2024-03-02T02:30:34;26.27;;;16.08;;
20880;SDS011;10600;53.096;8.802;2024-03-02T02:31:38;26.17;;;15.65;;
20880;SDS011;10600;53.096;8.802;2024-03-02T02:32:39;22.95;;;15.43;;
20880;SDS011;10600;53.096;8.802;2024-03-02T02:33:40;26.42;;;16.02;;
20880;SDS011;10600;53.096;8.802;2024-03-02T02:34:40;24.67;;;15.35;;
20880;SDS011;10600;53.096;8.802;2024-03-02T02:35:41;25.42;;;15.05;;
20880;SDS011;10600;53.096;8.802;2024-03-02T02:36:41;28.13;;;16.05;;
20880;SDS011;10600;53.096;8.802;2024-03-02T02:37:43;27.25;;;15.52;;
20880;SDS011;10600;53.096;8.802;2024-03-02T02:38:46;27.55;;;15.95;;
20880;SDS011;10600;53.096;8.802;2024-03-02T02:39:48;26.38;;;16.00;;
20880;SDS011;10600;53.096;8.802;2024-03-02T02:40:49;26.38;;;16.60;;
20880;SDS011;10600;53.096;8.802;2024-03-02T02:41:50;25.38;;;15.80;;
20880;SDS011;10600;53.096;8.802;2024-03-02T02:42:50;26.02;;;15.32;;
20880;SDS011;10600;53.096;8.802;2024-03-02T02:43:54;27.77;;;16.30;;
20880;SDS011;10600;53.096;8.802;2024-03-02T02:44:54;25.33;;;15.70;;
20880;SDS011;10600;53.096;8.802;2024-03-02T02:45:55;25.55;;;15.98;;
20880;SDS011;10600;53.096;8.802;2024-03-02T02:46:55;24.02;;;15.65;;
20880;SDS011;10600;53.096;8.802;2024-03-02T02:47:56;28.38;;;16.48;;
20880;SDS011;10600;53.096;8.802;2024-03-02T02:48:56;23.95;;;15.20;;
20880;SDS011;10600;53.096;8.802;2024-03-02T02:49:57;31.05;;;16.73;;
20880;SDS011;10600;53.096;8.802;2024-03-02T02:50:57;27.75;;;17.05;;
20880;SDS011;10600;53.096;8.802;2024-03-02T02:51:58;27.17;;;16.58;;
20880;SDS011;10600;53.096;8.802;2024-03-02T02:52:58;27.38;;;17.05;;
20880;SDS011;10600;53.096;8.802;2024-03-02T02:53:59;29.13;;;17.90;;
20880;SDS011;10600;53.096;8.802;2024-03-02T02:54:59;30.50;;;17.85;;
20880;SDS011;10600;53.096;8.802;2024-03-02T02:56:00;27.73;;;17.10;;
20880;SDS011;10600;53.096;8.802;2024-03-02T02:57:01;29.33;;;17.92;;
20880;SDS011;10600;53.096;8.802;2024-03-02T02:58:01;30.63;;;18.40;;
20880;SDS011;10600;53.096;8.802;2024-03-02T02:59:02;30.23;;;17.13;;
20880;SDS011;10600;53.096;8.802;2024-03-02T03:00:03;30.77;;;18.08;;
20880;SDS011;10600;53.096;8.802;2024-03-02T03:01:09;27.63;;;17.17;;
20880;SDS011;10600;53.096;8.802;2024-03-02T03:02:10;27.17;;;16.95;;
20880;SDS011;10600;53.096;8.802;2024-03-02T03:03:11;30.67;;;18.58;;
20880;SDS011;10600;53.096;8.802;2024-03-02T03:04:11;31.08;;;17.67;;
20880;SDS011;10600;53.096;8.802;2024-03-02T03:05:12;33.97;;;19.50;;
20880;SDS011;10600;53.096;8.802;2024-03-02T03:06:14;32.95;;;18.67;;
20880;SDS011;10600;53.096;8.802;2024-03-02T03:07:14;31.75;;;18.50;;
20880;SDS011;10600;53.096;8.802;2024-03-02T03:08:15;29.30;;;17.35;;
20880;SDS011;10600;53.096;8.802;2024-03-02T03:09:16;31.25;;;18.00;;
20880;SDS011;10600;53.096;8.802;2024-03-02T03:10:16;29.83;;;18.30;;
20880;SDS011;10600;53.096;8.802;2024-03-02T03:11:17;34.83;;;19.33;;
20880;SDS011;10600;53.096;8.802;2024-03-02T03:12:18;32.33;;;18.98;;
20880;SDS011;10600;53.096;8.802;2024-03-02T03:13:19;31.83;;;19.20;;
20880;SDS011;10600;53.096;8.802;2024-03-02T03:14:19;34.08;;;20.00;;
20880;SDS011;10600;53.096;8.802;2024-03-02T03:15:20;36.35;;;20.42;;
20880;SDS011;10600;53.096;8.802;2024-03-02T03:16:20;34.65;;;20.85;;
20880;SDS011;10600;53.096;8.802;2024-03-02T03:17:21;35.40;;;18.77;;
20880;SDS011;10600;53.096;8.802;2024-03-02T03:18:22;32.50;;;19.50;;
20880;SDS011;10600;53.096;8.802;2024-03-02T03:19:23;36.85;;;21.73;;
20880;SDS011;10600;53.096;8.802;2024-03-02T03:20:23;33.13;;;20.08;;
20880;SDS011;10600;53.096;8.802;2024-03-02T03:21:24;35.22;;;20.92;;
20880;SDS011;10600;53.096;8.802;2024-03-02T03:22:24;37.22;;;20.58;;
20880;SDS011;10600;53.096;8.802;2024-03-02T03:23:25;33.58;;;19.98;;
20880;SDS011;10600;53.096;8.802;2024-03-02T03:24:26;36.60;;;21.35;;
20880;SDS011;10600;53.096;8.802;2024-03-02T03:25:27;36.55;;;20.85;;
20880;SDS011;10600;53.096;8.802;2024-03-02T03:26:27;36.25;;;20.88;;
20880;SDS011;10600;53.096;8.802;2024-03-02T03:27:28;35.45;;;20.80;;
20880;SDS011;10600;53.096;8.802;2024-03-02T03:28:28;35.33;;;20.35;;
20880;SDS011;10600;53.096;8.802;2024-03-02T03:29:29;34.80;;;20.58;;
20880;SDS011;10600;53.096;8.802;2024-03-02T03:30:29;36.22;;;20.48;;
20880;SDS011;10600;53.096;8.802;2024-03-02T03:31:30;35.90;;;20.70;;
20880;SDS011;10600;53.096;8.802;2024-03-02T03:32:30;37.50;;;20.17;;
20880;SDS011;10600;53.096;8.802;2024-03-02T03:33:31;33.13;;;20.38;;
20880;SDS011;10600;53.096;8.802;2024-03-02T03:34:34;34.97;;;21.27;;
20880;SDS011;10600;53.096;8.802;2024-03-02T03:35:36;36.08;;;20.42;;
20880;SDS011;10600;53.096;8.802;2024-03-02T03:36:37;38.38;;;21.30;;
20880;SDS011;10600;53.096;8.802;2024-03-02T03:37:37;36.78;;;21.05;;
20880;SDS011;10600;53.096;8.802;2024-03-02T03:38:38;32.85;;;20.17;;
20880;SDS011;10600;53.096;8.802;2024-03-02T03:39:38;38.33;;;21.38;;
20880;SDS011;10600;53.096;8.802;2024-03-02T03:40:39;37.63;;;21.50;;
20880;SDS011;10600;53.096;8.802;2024-03-02T03:41:42;35.70;;;21.23;;
20880;SDS011;10600;53.096;8.802;2024-03-02T03:42:43;34.88;;;21.27;;
20880;SDS011;10600;53.096;8.802;2024-03-02T03:43:44;31.98;;;19.90;;
20880;SDS011;10600;53.096;8.802;2024-03-02T03:44:44;34.10;;;20.20;;
20880;SDS011;10600;53.096;8.802;2024-03-02T03:45:45;34.15;;;20.58;;
20880;SDS011;10600;53.096;8.802;2024-03-02T03:46:46;34.80;;;20.67;;
20880;SDS011;10600;53.096;8.802;2024-03-02T03:47:46;33.60;;;19.65;;
20880;SDS011;10600;53.096;8.802;2024-03-02T03:48:47;35.13;;;21.08;;
20880;SDS011;10600;53.096;8.802;2024-03-02T03:49:47;34.50;;;20.88;;
20880;SDS011;10600;53.096;8.802;2024-03-02T03:50:48;37.70;;;21.60;;
20880;SDS011;10600;53.096;8.802;2024-03-02T03:51:48;33.85;;;20.35;;
20880;SDS011;10600;53.096;8.802;2024-03-02T03:52:49;33.63;;;20.10;;
20880;SDS011;10600;53.096;8.802;2024-03-02T03:53:49;35.17;;;20.08;;
20880;SDS011;10600;53.096;8.802;2024-03-02T03:54:50;34.47;;;19.98;;
20880;SDS011;10600;53.096;8.802;2024-03-02T03:55:51;36.10;;;19.90;;
20880;SDS011;10600;53.096;8.802;2024-03-02T03:56:51;33.88;;;20.25;;
20880;SDS011;10600;53.096;8.802;2024-03-02T03:57:52;30.80;;;18.83;;
20880;SDS011;10600;53.096;8.802;2024-03-02T03:58:53;31.73;;;18.98;;
20880;SDS011;10600;53.096;8.802;2024-03-02T03:59:53;31.60;;;19.95;;
20880;SDS011;10600;53.096;8.802;2024-03-02T04:00:54;37.25;;;21.20;;
20880;SDS011;10600;53.096;8.802;2024-03-02T04:01:54;31.73;;;19.27;;
20880;SDS011;10600;53.096;8.802;2024-03-02T04:02:55;33.70;;;19.70;;
20880;SDS011;10600;53.096;8.802;2024-03-02T04:03:56;32.38;;;18.83;;
20880;SDS011;10600;53.096;8.802;2024-03-02T04:04:57;31.70;;;19.00;;
20880;SDS011;10600;53.096;8.802;2024-03-02T04:05:58;31.13;;;19.20;;
20880;SDS011;10600;53.096;8.802;2024-03-02T04:06:59;32.17;;;19.05;;
20880;SDS011;10600;53.096;8.802;2024-03-02T04:07:59;32.25;;;19.25;;
20880;SDS011;10600;53.096;8.802;2024-03-02T04:09:00;29.45;;;18.00;;
20880;SDS011;10600;53.096;8.802;2024-03-02T04:10:01;33.33;;;19.70;;
20880;SDS011;10600;53.096;8.802;2024-03-02T04:11:02;32.10;;;19.45;;
20880;SDS011;10600;53.096;8.802;2024-03-02T04:12:03;33.35;;;19.40;;
20880;SDS011;10600;53.096;8.802;2024-03-02T04:13:03;32.45;;;18.95;;
20880;SDS011;10600;53.096;8.802;2024-03-02T04:14:04;28.67;;;18.20;;
20880;SDS011;10600;53.096;8.802;2024-03-02T04:15:06;29.02;;;18.58;;
20880;SDS011;10600;53.096;8.802;2024-03-02T04:16:07;30.70;;;18.67;;
20880;SDS011;10600;53.096;8.802;2024-03-02T04:17:07;29.83;;;19.35;;
20880;SDS011;10600;53.096;8.802;2024-03-02T04:18:08;29.65;;;18.33;;
20880;SDS011;10600;53.096;8.802;2024-03-02T04:19:08;28.42;;;18.23;;
20880;SDS011;10600;53.096;8.802;2024-03-02T04:20:09;32.03;;;18.65;;
20880;SDS011;10600;53.096;8.802;2024-03-02T04:21:12;32.58;;;18.73;;
20880;SDS011;10600;53.096;8.802;2024-03-02T04:22:13;29.73;;;18.25;;
20880;SDS011;10600;53.096;8.802;2024-03-02T04:23:13;31.67;;;18.45;;
20880;SDS011;10600;53.096;8.802;2024-03-02T04:24:14;30.58;;;17.70;;
20880;SDS011;10600;53.096;8.802;2024-03-02T04:25:15;28.30;;;17.00;;
20880;SDS011;10600;53.096;8.802;2024-03-02T04:26:16;26.98;;;17.77;;
20880;SDS011;10600;53.096;8.802;2024-03-02T04:27:21;29.20;;;17.20;;
20880;SDS011;10600;53.096;8.802;2024-03-02T04:28:22;30.35;;;18.27;;
20880;SDS011;10600;53.096;8.802;2024-03-02T04:29:23;30.90;;;18.77;;
20880;SDS011;10600;53.096;8.802;2024-03-02T04:30:23;31.52;;;18.65;;
20880;SDS011;10600;53.096;8.802;2024-03-02T04:31:25;27.92;;;17.95;;
20880;SDS011;10600;53.096;8.802;2024-03-02T04:32:28;29.20;;;17.92;;
20880;SDS011;10600;53.096;8.802;2024-03-02T04:33:29;27.42;;;17.83;;
20880;SDS011;10600;53.096;8.802;2024-03-02T04:34:30;27.55;;;17.33;;
20880;SDS011;10600;53.096;8.802;2024-03-02T04:35:30;29.05;;;18.38;;
20880;SDS011;10600;53.096;8.802;2024-03-02T04:36:31;31.10;;;17.80;;
20880;SDS011;10600;53.096;8.802;2024-03-02T04:37:33;33.65;;;18.25;;
20880;SDS011;10600;53.096;8.802;2024-03-02T04:38:34;29.55;;;18.17;;
20880;SDS011;10600;53.096;8.802;2024-03-02T04:39:35;26.23;;;16.17;;
20880;SDS011;10600;53.096;8.802;2024-03-02T04:40:36;26.33;;;17.17;;
20880;SDS011;10600;53.096;8.802;2024-03-02T04:41:36;26.90;;;17.02;;
20880;SDS011;10600;53.096;8.802;2024-03-02T04:42:37;29.50;;;16.83;;
20880;SDS011;10600;53.096;8.802;2024-03-02T04:43:37;28.92;;;17.05;;
20880;SDS011;10600;53.096;8.802;2024-03-02T04:44:38;27.92;;;17.38;;
20880;SDS011;10600;53.096;8.802;2024-03-02T04:45:38;26.30;;;16.20;;
20880;SDS011;10600;53.096;8.802;2024-03-02T04:46:39;28.33;;;17.75;;
20880;SDS011;10600;53.096;8.802;2024-03-02T04:47:39;26.58;;;16.45;;
20880;SDS011;10600;53.096;8.802;2024-03-02T04:48:40;30.27;;;17.42;;
20880;SDS011;10600;53.096;8.802;2024-03-02T04:49:40;28.42;;;16.52;;
20880;SDS011;10600;53.096;8.802;2024-03-02T04:50:41;27.38;;;17.33;;
20880;SDS011;10600;53.096;8.802;2024-03-02T04:51:41;25.27;;;16.20;;
20880;SDS011;10600;53.096;8.802;2024-03-02T04:52:42;26.52;;;16.27;;
20880;SDS011;10600;53.096;8.802;2024-03-02T04:53:42;26.08;;;16.33;;
20880;SDS011;10600;53.096;8.802;2024-03-02T04:54:43;26.67;;;16.13;;
20880;SDS011;10600;53.096;8.802;2024-03-02T04:56:02;25.73;;;14.77;;
20880;SDS011;10600;53.096;8.802;2024-03-02T04:57:21;27.38;;;16.85;;
20880;SDS011;10600;53.096;8.802;2024-03-02T04:58:22;25.90;;;16.23;;
20880;SDS011;10600;53.096;8.802;2024-03-02T04:59:22;26.67;;;16.63;;
20880;SDS011;10600;53.096;8.802;2024-03-02T05:00:23;25.52;;;16.33;;
20880;SDS011;10600;53.096;8.802;2024-03-02T05:01:23;25.27;;;16.45;;
20880;SDS011;10600;53.096;8.802;2024-03-02T05:02:24;25.25;;;15.60;;
20880;SDS011;10600;53.096;8.802;2024-03-02T05:03:24;26.02;;;16.70;;
20880;SDS011;10600;53.096;8.802;2024-03-02T05:04:25;28.92;;;16.63;;
20880;SDS011;10600;53.096;8.802;2024-03-02T05:05:25;25.48;;;16.13;;
20880;SDS011;10600;53.096;8.802;2024-03-02T05:06:26;26.25;;;17.27;;
20880;SDS011;10600;53.096;8.802;2024-03-02T05:07:26;27.98;;;16.58;;
20880;SDS011;10600;53.096;8.802;2024-03-02T05:08:27;25.65;;;16.27;;
20880;SDS011;10600;53.096;8.802;2024-03-02T05:09:27;27.38;;;16.85;;
20880;SDS011;10600;53.096;8.802;2024-03-02T05:10:28;26.73;;;15.52;;
20880;SDS011;10600;53.096;8.802;2024-03-02T05:11:29;26.63;;;16.65;;
20880;SDS011;10600;53.096;8.802;2024-03-02T05:12:38;28.33;;;16.70;;
20880;SDS011;10600;53.096;8.802;2024-03-02T05:13:45;25.88;;;16.27;;
20880;SDS011;10600;53.096;8.802;2024-03-02T05:14:46;22.98;;;15.20;;
20880;SDS011;10600;53.096;8.802;2024-03-02T05:15:46;27.23;;;17.40;;
20880;SDS011;10600;53.096;8.802;2024-03-02T05:16:47;24.95;;;15.45;;
20880;SDS011;10600;53.096;8.802;2024-03-02T05:17:47;26.52;;;16.05;;
20880;SDS011;10600;53.096;8.802;2024-03-02T05:18:48;27.67;;;15.88;;
20880;SDS011;10600;53.096;8.802;2024-03-02T05:19:48;27.77;;;16.13;;
20880;SDS011;10600;53.096;8.802;2024-03-02T05:20:49;29.30;;;17.25;;
20880;SDS011;10600;53.096;8.802;2024-03-02T05:21:49;25.58;;;16.60;;
20880;SDS011;10600;53.096;8.802;2024-03-02T05:22:51;24.77;;;15.60;;
20880;SDS011;10600;53.096;8.802;2024-03-02T05:23:51;28.15;;;16.42;;
20880;SDS011;10600;53.096;8.802;2024-03-02T05:24:52;24.45;;;15.23;;
20880;SDS011;10600;53.096;8.802;2024-03-02T05:25:52;26.00;;;15.68;;
20880;SDS011;10600;53.096;8.802;2024-03-02T05:26:53;25.52;;;16.02;;
20880;SDS011;10600;53.096;8.802;2024-03-02T05:27:53;26.77;;;16.33;;
20880;SDS011;10600;53.096;8.802;2024-03-02T05:28:54;25.20;;;15.90;;
20880;SDS011;10600;53.096;8.802;2024-03-02T05:29:54;26.92;;;15.75;;
20880;SDS011;10600;53.096;8.802;2024-03-02T05:30:55;25.80;;;16.35;;
20880;SDS011;10600;53.096;8.802;2024-03-02T05:31:56;26.27;;;15.63;;
20880;SDS011;10600;53.096;8.802;2024-03-02T05:32:56;26.30;;;16.73;;
20880;SDS011;10600;53.096;8.802;2024-03-02T05:33:57;28.92;;;17.30;;
20880;SDS011;10600;53.096;8.802;2024-03-02T05:34:57;27.02;;;16.33;;
20880;SDS011;10600;53.096;8.802;2024-03-02T05:35:58;25.05;;;16.70;;
20880;SDS011;10600;53.096;8.802;2024-03-02T05:36:58;25.77;;;15.95;;
20880;SDS011;10600;53.096;8.802;2024-03-02T05:37:59;25.38;;;16.50;;
20880;SDS011;10600;53.096;8.802;2024-03-02T05:38:59;26.02;;;15.85;;
20880;SDS011;10600;53.096;8.802;2024-03-02T05:40:00;26.63;;;16.45;;
20880;SDS011;10600;53.096;8.802;2024-03-02T05:41:01;28.08;;;16.90;;
20880;SDS011;10600;53.096;8.802;2024-03-02T05:42:02;27.48;;;17.33;;
20880;SDS011;10600;53.096;8.802;2024-03-02T05:43:03;23.83;;;15.20;;
20880;SDS011;10600;53.096;8.802;2024-03-02T05:44:04;24.98;;;16.40;;
20880;SDS011;10600;53.096;8.802;2024-03-02T05:45:05;25.65;;;16.00;;
20880;SDS011;10600;53.096;8.802;2024-03-02T05:46:05;30.08;;;16.63;;
20880;SDS011;10600;53.096;8.802;2024-03-02T05:47:06;23.48;;;15.85;;
20880;SDS011;10600;53.096;8.802;2024-03-02T05:48:08;25.67;;;16.25;;
20880;SDS011;10600;53.096;8.802;2024-03-02T05:49:09;28.58;;;17.42;;
20880;SDS011;10600;53.096;8.802;2024-03-02T05:50:10;26.58;;;15.73;;
20880;SDS011;10600;53.096;8.802;2024-03-02T05:51:10;24.45;;;15.27;;
20880;SDS011;10600;53.096;8.802;2024-03-02T05:52:11;24.67;;;16.20;;
20880;SDS011;10600;53.096;8.802;2024-03-02T05:53:12;27.00;;;16.10;;
20880;SDS011;10600;53.096;8.802;2024-03-02T05:54:13;25.90;;;16.73;;
20880;SDS011;10600;53.096;8.802;2024-03-02T05:55:13;26.05;;;16.63;;
20880;SDS011;10600;53.096;8.802;2024-03-02T05:56:14;26.55;;;16.83;;
20880;SDS011;10600;53.096;8.802;2024-03-02T05:57:14;29.60;;;17.20;;
20880;SDS011;10600;53.096;8.802;2024-03-02T05:58:33;26.42;;;16.27;;
20880;SDS011;10600;53.096;8.802;2024-03-02T05:59:43;26.58;;;16.95;;